sensor_id;sensor_type;location;lat;lon;timestamp;pressure;altitude;pressure_sealevel;temperature;humidity
64080;BME280;51042;49.696;10.808;2022-08-11T00:01:08;99023.84;;;17.91;50.67
64080;BME280;51042;49.696;10.808;2022-08-11T00:03:37;99024.00;;;17.88;50.97
64080;BME280;51042;49.696;10.808;2022-08-11T00:06:08;99022.38;;;17.81;50.58
64080;BME280;51042;49.696;10.808;2022-08-11T00:08:34;99017.91;;;17.75;51.13
64080;BME280;51042;49.696;10.808;2022-08-11T00:11:02;99019.28;;;17.70;51.33
64080;BME280;51042;49.696;10.808;2022-08-11T00:13:33;99018.53;;;17.70;51.19
64080;BME280;51042;49.696;10.808;2022-08-11T00:16:01;99011.59;;;17.65;51.11
64080;BME280;51042;49.696;10.808;2022-08-11T00:18:28;99011.00;;;17.61;50.91
64080;BME280;51042;49.696;10.808;2022-08-11T00:21:02;99013.44;;;17.59;51.39
64080;BME280;51042;49.696;10.808;2022-08-11T00:23:27;99018.72;;;17.57;51.66
64080;BME280;51042;49.696;10.808;2022-08-11T00:25:53;99025.97;;;17.54;51.24
64080;BME280;51042;49.696;10.808;2022-08-11T00:28:32;99017.31;;;17.52;51.41
64080;BME280;51042;49.696;10.808;2022-08-11T00:31:00;99021.03;;;17.49;51.36
64080;BME280;51042;49.696;10.808;2022-08-11T00:33:47;99016.41;;;17.46;51.57
64080;BME280;51042;49.696;10.808;2022-08-11T00:36:15;99018.59;;;17.42;52.06
64080;BME280;51042;49.696;10.808;2022-08-11T00:38:43;99024.44;;;17.35;52.04
64080;BME280;51042;49.696;10.808;2022-08-11T00:49:41;99023.28;;;17.09;54.07
64080;BME280;51042;49.696;10.808;2022-08-11T01:00:53;99024.06;;;16.91;56.48
64080;BME280;51042;49.696;10.808;2022-08-11T01:28:37;99026.69;;;16.18;58.95
64080;BME280;51042;49.696;10.808;2022-08-11T01:54:43;99024.03;;;15.66;60.62
64080;BME280;51042;49.696;10.808;2022-08-11T02:00:25;99014.03;;;15.68;61.21
64080;BME280;51042;49.696;10.808;2022-08-11T02:03:07;99023.44;;;15.71;61.40
64080;BME280;51042;49.696;10.808;2022-08-11T02:11:35;99010.81;;;15.61;62.35
64080;BME280;51042;49.696;10.808;2022-08-11T02:14:13;99004.56;;;15.47;62.38
64080;BME280;51042;49.696;10.808;2022-08-11T02:26:02;98996.59;;;15.28;62.95
64080;BME280;51042;49.696;10.808;2022-08-11T02:31:57;99001.75;;;15.17;62.78
64080;BME280;51042;49.696;10.808;2022-08-11T02:35:09;99009.72;;;15.15;64.06
64080;BME280;51042;49.696;10.808;2022-08-11T02:37:40;99012.63;;;15.11;63.68
64080;BME280;51042;49.696;10.808;2022-08-11T02:40:21;99009.22;;;15.07;64.38
64080;BME280;51042;49.696;10.808;2022-08-11T02:43:19;99015.31;;;15.02;64.11
64080;BME280;51042;49.696;10.808;2022-08-11T02:45:51;99017.19;;;15.05;64.37
64080;BME280;51042;49.696;10.808;2022-08-11T02:48:40;99015.78;;;15.00;64.57
64080;BME280;51042;49.696;10.808;2022-08-11T02:51:41;99013.91;;;14.97;64.28
64080;BME280;51042;49.696;10.808;2022-08-11T02:59:34;99013.06;;;14.88;64.88
64080;BME280;51042;49.696;10.808;2022-08-11T03:07:27;99013.28;;;14.93;64.73
64080;BME280;51042;49.696;10.808;2022-08-11T03:10:42;99017.69;;;14.91;64.71
64080;BME280;51042;49.696;10.808;2022-08-11T03:19:02;99009.25;;;14.73;64.71
64080;BME280;51042;49.696;10.808;2022-08-11T03:21:43;99013.25;;;14.72;65.47
64080;BME280;51042;49.696;10.808;2022-08-11T03:24:21;99015.94;;;14.62;67.17
64080;BME280;51042;49.696;10.808;2022-08-11T03:44:34;99010.91;;;14.36;67.82
64080;BME280;51042;49.696;10.808;2022-08-11T04:23:40;99014.41;;;14.49;67.39
64080;BME280;51042;49.696;10.808;2022-08-11T04:37:47;99016.41;;;14.83;66.50
64080;BME280;51042;49.696;10.808;2022-08-11T04:40:38;99025.09;;;14.94;66.05
64080;BME280;51042;49.696;10.808;2022-08-11T04:43:26;99023.81;;;15.82;64.50
64080;BME280;51042;49.696;10.808;2022-08-11T04:49:51;99019.16;;;20.40;50.93
64080;BME280;51042;49.696;10.808;2022-08-11T04:53:18;99024.66;;;21.98;46.73
64080;BME280;51042;49.696;10.808;2022-08-11T04:56:20;99028.97;;;22.95;44.18
64080;BME280;51042;49.696;10.808;2022-08-11T04:59:13;99028.38;;;23.78;42.35
64080;BME280;51042;49.696;10.808;2022-08-11T05:13:33;99052.34;;;26.89;35.99
64080;BME280;51042;49.696;10.808;2022-08-11T05:16:30;99052.44;;;27.39;35.30
64080;BME280;51042;49.696;10.808;2022-08-11T05:19:18;99058.78;;;27.77;35.03
64080;BME280;51042;49.696;10.808;2022-08-11T05:22:04;99053.81;;;27.83;34.43
64080;BME280;51042;49.696;10.808;2022-08-11T05:25:00;99056.16;;;27.98;34.31
64080;BME280;51042;49.696;10.808;2022-08-11T05:30:57;99051.19;;;28.89;32.82
64080;BME280;51042;49.696;10.808;2022-08-11T05:33:47;99058.69;;;29.20;32.23
64080;BME280;51042;49.696;10.808;2022-08-11T05:39:15;99063.03;;;29.68;31.62
64080;BME280;51042;49.696;10.808;2022-08-11T05:42:04;99065.72;;;29.74;31.34
64080;BME280;51042;49.696;10.808;2022-08-11T05:44:49;99062.81;;;30.00;30.94
64080;BME280;51042;49.696;10.808;2022-08-11T05:47:38;99068.50;;;30.49;30.37
64080;BME280;51042;49.696;10.808;2022-08-11T05:50:24;99061.22;;;30.12;30.26
64080;BME280;51042;49.696;10.808;2022-08-11T05:53:09;99065.06;;;29.00;31.58
64080;BME280;51042;49.696;10.808;2022-08-11T05:55:55;99076.13;;;28.32;32.43
64080;BME280;51042;49.696;10.808;2022-08-11T05:58:42;99064.72;;;27.92;32.92
64080;BME280;51042;49.696;10.808;2022-08-11T06:01:13;99060.63;;;28.07;33.11
64080;BME280;51042;49.696;10.808;2022-08-11T06:03:47;99065.59;;;28.32;32.56
64080;BME280;51042;49.696;10.808;2022-08-11T06:06:35;99066.50;;;28.09;33.10
64080;BME280;51042;49.696;10.808;2022-08-11T06:09:04;99065.22;;;27.59;33.47
64080;BME280;51042;49.696;10.808;2022-08-11T06:11:30;99052.03;;;27.67;33.50
64080;BME280;51042;49.696;10.808;2022-08-11T06:14:03;99064.31;;;28.60;32.44
64080;BME280;51042;49.696;10.808;2022-08-11T06:16:30;99060.59;;;29.04;31.88
64080;BME280;51042;49.696;10.808;2022-08-11T06:18:56;99065.91;;;28.29;32.47
64080;BME280;51042;49.696;10.808;2022-08-11T06:21:23;99061.34;;;27.25;34.54
64080;BME280;51042;49.696;10.808;2022-08-11T06:23:49;99065.97;;;26.60;35.26
64080;BME280;51042;49.696;10.808;2022-08-11T06:26:15;99050.41;;;25.29;37.55
64080;BME280;51042;49.696;10.808;2022-08-11T06:28:42;99062.53;;;24.21;39.72
64080;BME280;51042;49.696;10.808;2022-08-11T06:36:33;99052.75;;;21.11;47.38
64080;BME280;51042;49.696;10.808;2022-08-11T06:41:48;99045.03;;;20.81;48.47
64080;BME280;51042;49.696;10.808;2022-08-11T06:44:28;99050.06;;;20.76;48.42
64080;BME280;51042;49.696;10.808;2022-08-11T06:47:03;99054.56;;;20.74;48.66
64080;BME280;51042;49.696;10.808;2022-08-11T06:49:32;99054.38;;;20.77;49.18
64080;BME280;51042;49.696;10.808;2022-08-11T06:52:19;99054.09;;;20.96;48.77
64080;BME280;51042;49.696;10.808;2022-08-11T06:54:54;99044.25;;;21.21;48.38
64080;BME280;51042;49.696;10.808;2022-08-11T06:57:29;99039.81;;;21.34;48.07
64080;BME280;51042;49.696;10.808;2022-08-11T07:00:15;99053.00;;;21.34;47.79
64080;BME280;51042;49.696;10.808;2022-08-11T07:05:29;99040.91;;;21.68;45.98
64080;BME280;51042;49.696;10.808;2022-08-11T07:14:31;99033.16;;;22.15;44.77
64080;BME280;51042;49.696;10.808;2022-08-11T07:17:18;99042.50;;;22.12;45.10
64080;BME280;51042;49.696;10.808;2022-08-11T07:19:49;99034.78;;;22.32;44.73
64080;BME280;51042;49.696;10.808;2022-08-11T07:22:36;99038.88;;;22.37;44.11
64080;BME280;51042;49.696;10.808;2022-08-11T07:25:23;99034.41;;;22.62;44.27
64080;BME280;51042;49.696;10.808;2022-08-11T07:28:13;99033.78;;;22.89;43.17
64080;BME280;51042;49.696;10.808;2022-08-11T07:31:06;99037.66;;;23.03;42.71
64080;BME280;51042;49.696;10.808;2022-08-11T07:33:46;99033.38;;;23.18;42.61
64080;BME280;51042;49.696;10.808;2022-08-11T07:36:16;99032.59;;;23.18;41.78
64080;BME280;51042;49.696;10.808;2022-08-11T07:38:49;99030.84;;;23.26;41.91
64080;BME280;51042;49.696;10.808;2022-08-11T07:41:18;99020.41;;;23.32;41.70
64080;BME280;51042;49.696;10.808;2022-08-11T07:43:48;99024.50;;;23.42;41.82
64080;BME280;51042;49.696;10.808;2022-08-11T07:46:16;99028.13;;;23.76;40.95
64080;BME280;51042;49.696;10.808;2022-08-11T07:49:02;99024.28;;;23.85;41.18
64080;BME280;51042;49.696;10.808;2022-08-11T07:51:48;99021.47;;;23.90;40.57
64080;BME280;51042;49.696;10.808;2022-08-11T07:54:33;99015.09;;;24.07;39.69
64080;BME280;51042;49.696;10.808;2022-08-11T07:57:02;99007.19;;;24.05;39.95
64080;BME280;51042;49.696;10.808;2022-08-11T07:59:47;99017.13;;;24.23;39.60
64080;BME280;51042;49.696;10.808;2022-08-11T08:02:32;99009.50;;;24.23;39.54
64080;BME280;51042;49.696;10.808;2022-08-11T08:05:23;99012.53;;;24.31;39.28
64080;BME280;51042;49.696;10.808;2022-08-11T08:08:08;99010.00;;;24.22;39.13
64080;BME280;51042;49.696;10.808;2022-08-11T08:10:53;99009.97;;;24.16;39.31
64080;BME280;51042;49.696;10.808;2022-08-11T08:13:39;99010.72;;;24.39;38.71
64080;BME280;51042;49.696;10.808;2022-08-11T08:16:24;99002.28;;;24.39;38.39
64080;BME280;51042;49.696;10.808;2022-08-11T08:19:12;99011.16;;;24.60;37.46
64080;BME280;51042;49.696;10.808;2022-08-11T08:21:40;99020.06;;;24.64;38.17
64080;BME280;51042;49.696;10.808;2022-08-11T08:24:07;99006.47;;;24.85;37.32
64080;BME280;51042;49.696;10.808;2022-08-11T08:26:33;99008.75;;;24.92;36.92
64080;BME280;51042;49.696;10.808;2022-08-11T08:29:17;98998.78;;;24.85;37.19
64080;BME280;51042;49.696;10.808;2022-08-11T08:32:03;99004.75;;;24.65;36.49
64080;BME280;51042;49.696;10.808;2022-08-11T08:34:28;99000.38;;;24.75;36.34
64080;BME280;51042;49.696;10.808;2022-08-11T08:36:54;99003.13;;;24.86;36.54
64080;BME280;51042;49.696;10.808;2022-08-11T08:39:20;99011.47;;;25.08;36.31
64080;BME280;51042;49.696;10.808;2022-08-11T08:41:51;98999.28;;;25.36;36.42
64080;BME280;51042;49.696;10.808;2022-08-11T08:44:18;99006.22;;;25.29;35.76
64080;BME280;51042;49.696;10.808;2022-08-11T08:46:50;99011.28;;;25.36;35.57
64080;BME280;51042;49.696;10.808;2022-08-11T08:49:21;99005.25;;;25.21;34.84
64080;BME280;51042;49.696;10.808;2022-08-11T08:51:52;99002.97;;;25.19;34.84
64080;BME280;51042;49.696;10.808;2022-08-11T08:54:21;99007.94;;;25.43;34.87
64080;BME280;51042;49.696;10.808;2022-08-11T08:56:50;98996.94;;;25.75;34.60
64080;BME280;51042;49.696;10.808;2022-08-11T08:59:19;98999.38;;;25.90;33.98
64080;BME280;51042;49.696;10.808;2022-08-11T09:01:58;98998.47;;;25.41;34.84
64080;BME280;51042;49.696;10.808;2022-08-11T09:04:26;98998.69;;;25.84;34.60
64080;BME280;51042;49.696;10.808;2022-08-11T09:06:53;98999.03;;;25.69;34.66
64080;BME280;51042;49.696;10.808;2022-08-11T09:09:21;98985.25;;;25.95;34.26
64080;BME280;51042;49.696;10.808;2022-08-11T09:11:47;98995.66;;;25.76;35.71
64080;BME280;51042;49.696;10.808;2022-08-11T09:14:19;99006.84;;;26.12;34.39
64080;BME280;51042;49.696;10.808;2022-08-11T09:17:17;98998.69;;;26.08;34.78
64080;BME280;51042;49.696;10.808;2022-08-11T09:19:43;98991.84;;;26.04;34.13
64080;BME280;51042;49.696;10.808;2022-08-11T09:22:10;98999.22;;;26.07;33.58
64080;BME280;51042;49.696;10.808;2022-08-11T09:24:55;98993.09;;;26.32;34.17
64080;BME280;51042;49.696;10.808;2022-08-11T09:27:40;98993.31;;;26.77;33.60
64080;BME280;51042;49.696;10.808;2022-08-11T09:30:07;98995.06;;;26.62;32.25
64080;BME280;51042;49.696;10.808;2022-08-11T09:32:35;98985.28;;;26.44;32.25
64080;BME280;51042;49.696;10.808;2022-08-11T09:35:03;98991.63;;;26.50;32.63
64080;BME280;51042;49.696;10.808;2022-08-11T09:37:29;98983.97;;;26.69;32.17
64080;BME280;51042;49.696;10.808;2022-08-11T09:40:15;98979.44;;;26.61;32.08
64080;BME280;51042;49.696;10.808;2022-08-11T09:42:53;98981.78;;;26.38;32.62
64080;BME280;51042;49.696;10.808;2022-08-11T09:45:38;98978.78;;;26.73;32.61
64080;BME280;51042;49.696;10.808;2022-08-11T09:48:04;98973.00;;;26.85;31.39
64080;BME280;51042;49.696;10.808;2022-08-11T09:50:32;98968.72;;;26.78;31.77
64080;BME280;51042;49.696;10.808;2022-08-11T09:52:59;98970.09;;;26.71;31.97
64080;BME280;51042;49.696;10.808;2022-08-11T09:55:27;98970.56;;;26.94;32.22
64080;BME280;51042;49.696;10.808;2022-08-11T09:57:53;98977.50;;;27.12;31.52
64080;BME280;51042;49.696;10.808;2022-08-11T10:00:37;98970.41;;;26.87;31.64
64080;BME280;51042;49.696;10.808;2022-08-11T10:03:05;98970.16;;;26.66;31.64
64080;BME280;51042;49.696;10.808;2022-08-11T10:05:35;98955.13;;;27.01;31.65
64080;BME280;51042;49.696;10.808;2022-08-11T10:08:20;98968.94;;;27.17;30.61
64080;BME280;51042;49.696;10.808;2022-08-11T10:10:50;98958.41;;;27.37;29.84
64080;BME280;51042;49.696;10.808;2022-08-11T10:13:18;98950.75;;;27.18;29.98
64080;BME280;51042;49.696;10.808;2022-08-11T10:15:46;98949.78;;;27.16;29.18
64080;BME280;51042;49.696;10.808;2022-08-11T10:18:14;98947.94;;;27.50;28.59
64080;BME280;51042;49.696;10.808;2022-08-11T10:21:00;98953.59;;;27.50;29.31
64080;BME280;51042;49.696;10.808;2022-08-11T10:23:31;98950.00;;;27.50;28.67
64080;BME280;51042;49.696;10.808;2022-08-11T10:26:18;98946.41;;;27.49;28.54
64080;BME280;51042;49.696;10.808;2022-08-11T10:29:04;98944.09;;;27.35;28.64
64080;BME280;51042;49.696;10.808;2022-08-11T10:31:54;98933.78;;;27.56;28.53
64080;BME280;51042;49.696;10.808;2022-08-11T10:34:39;98934.56;;;27.70;28.32
64080;BME280;51042;49.696;10.808;2022-08-11T10:37:07;98940.63;;;27.60;28.03
64080;BME280;51042;49.696;10.808;2022-08-11T10:39:33;98933.59;;;27.80;27.29
64080;BME280;51042;49.696;10.808;2022-08-11T10:42:01;98935.09;;;27.36;27.96
64080;BME280;51042;49.696;10.808;2022-08-11T10:44:46;98932.91;;;27.29;28.78
64080;BME280;51042;49.696;10.808;2022-08-11T10:47:15;98911.13;;;27.61;28.18
64080;BME280;51042;49.696;10.808;2022-08-11T10:50:00;98916.13;;;27.95;28.32
64080;BME280;51042;49.696;10.808;2022-08-11T10:52:46;98922.28;;;27.67;28.16
64080;BME280;51042;49.696;10.808;2022-08-11T10:55:32;98923.50;;;27.72;27.64
64080;BME280;51042;49.696;10.808;2022-08-11T10:58:18;98911.34;;;27.90;27.74
64080;BME280;51042;49.696;10.808;2022-08-11T11:01:03;98909.31;;;28.03;27.25
64080;BME280;51042;49.696;10.808;2022-08-11T11:03:29;98899.56;;;28.18;28.94
64080;BME280;51042;49.696;10.808;2022-08-11T11:06:08;98907.72;;;28.81;27.49
64080;BME280;51042;49.696;10.808;2022-08-11T11:08:44;98901.81;;;28.46;26.88
64080;BME280;51042;49.696;10.808;2022-08-11T11:11:17;98908.56;;;28.16;27.66
64080;BME280;51042;49.696;10.808;2022-08-11T11:13:45;98903.47;;;28.15;27.38
64080;BME280;51042;49.696;10.808;2022-08-11T11:16:32;98898.56;;;28.41;26.82
64080;BME280;51042;49.696;10.808;2022-08-11T11:19:15;98899.78;;;28.20;27.08
64080;BME280;51042;49.696;10.808;2022-08-11T11:21:49;98893.09;;;28.57;26.73
64080;BME280;51042;49.696;10.808;2022-08-11T11:24:38;98889.09;;;28.39;26.50
64080;BME280;51042;49.696;10.808;2022-08-11T11:27:56;98880.78;;;28.20;27.16
64080;BME280;51042;49.696;10.808;2022-08-11T11:30:34;98883.38;;;28.05;28.11
64080;BME280;51042;49.696;10.808;2022-08-11T11:33:25;98879.56;;;28.42;27.61
64080;BME280;51042;49.696;10.808;2022-08-11T11:38:51;98871.28;;;28.44;27.28
64080;BME280;51042;49.696;10.808;2022-08-11T11:41:20;98866.66;;;29.22;26.63
64080;BME280;51042;49.696;10.808;2022-08-11T11:43:53;98866.41;;;29.54;25.96
64080;BME280;51042;49.696;10.808;2022-08-11T11:46:26;98870.94;;;28.95;26.41
64080;BME280;51042;49.696;10.808;2022-08-11T11:48:54;98857.63;;;28.69;26.81
64080;BME280;51042;49.696;10.808;2022-08-11T11:51:21;98866.09;;;28.82;26.88
64080;BME280;51042;49.696;10.808;2022-08-11T11:53:47;98861.66;;;28.73;27.01
64080;BME280;51042;49.696;10.808;2022-08-11T11:56:14;98873.47;;;29.27;26.25
64080;BME280;51042;49.696;10.808;2022-08-11T11:58:40;98858.22;;;29.71;25.72
64080;BME280;51042;49.696;10.808;2022-08-11T12:01:25;98863.31;;;30.01;25.74
64080;BME280;51042;49.696;10.808;2022-08-11T12:03:52;98851.94;;;30.29;25.84
64080;BME280;51042;49.696;10.808;2022-08-11T12:06:20;98849.94;;;29.32;26.17
64080;BME280;51042;49.696;10.808;2022-08-11T12:08:48;98846.88;;;29.22;26.74
64080;BME280;51042;49.696;10.808;2022-08-11T12:11:17;98836.50;;;29.66;26.16
64080;BME280;51042;49.696;10.808;2022-08-11T12:14:05;98835.72;;;29.94;26.16
64080;BME280;51042;49.696;10.808;2022-08-11T12:16:33;98834.91;;;29.57;25.27
64080;BME280;51042;49.696;10.808;2022-08-11T12:19:01;98830.41;;;29.34;25.58
64080;BME280;51042;49.696;10.808;2022-08-11T12:21:29;98838.13;;;29.61;25.65
64080;BME280;51042;49.696;10.808;2022-08-11T12:23:56;98834.25;;;30.00;24.89
64080;BME280;51042;49.696;10.808;2022-08-11T12:26:43;98834.47;;;30.02;24.88
64080;BME280;51042;49.696;10.808;2022-08-11T12:29:19;98828.44;;;30.57;24.17
64080;BME280;51042;49.696;10.808;2022-08-11T12:31:51;98812.09;;;31.01;23.86
64080;BME280;51042;49.696;10.808;2022-08-11T12:34:18;98822.72;;;30.42;23.91
64080;BME280;51042;49.696;10.808;2022-08-11T12:37:00;98824.16;;;30.20;24.63
64080;BME280;51042;49.696;10.808;2022-08-11T12:39:41;98817.63;;;30.40;23.92
64080;BME280;51042;49.696;10.808;2022-08-11T12:42:30;98819.53;;;29.74;24.39
64080;BME280;51042;49.696;10.808;2022-08-11T12:45:16;98802.28;;;29.56;24.60
64080;BME280;51042;49.696;10.808;2022-08-11T12:47:52;98794.63;;;29.36;25.32
64080;BME280;51042;49.696;10.808;2022-08-11T12:51:01;98804.19;;;29.90;24.59
64080;BME280;51042;49.696;10.808;2022-08-11T12:54:10;98806.22;;;30.18;24.18
64080;BME280;51042;49.696;10.808;2022-08-11T12:56:47;98788.56;;;29.60;24.17
64080;BME280;51042;49.696;10.808;2022-08-11T12:59:37;98794.06;;;29.66;24.38
64080;BME280;51042;49.696;10.808;2022-08-11T13:02:22;98796.50;;;29.70;24.57
64080;BME280;51042;49.696;10.808;2022-08-11T13:05:07;98793.91;;;30.81;23.97
64080;BME280;51042;49.696;10.808;2022-08-11T13:07:37;98793.00;;;30.20;23.84
64080;BME280;51042;49.696;10.808;2022-08-11T13:10:06;98785.41;;;30.15;23.46
64080;BME280;51042;49.696;10.808;2022-08-11T13:12:33;98783.19;;;30.21;23.67
64080;BME280;51042;49.696;10.808;2022-08-11T13:15:21;98776.38;;;29.73;24.17
64080;BME280;51042;49.696;10.808;2022-08-11T13:17:53;98777.84;;;30.02;24.27
64080;BME280;51042;49.696;10.808;2022-08-11T13:20:23;98780.44;;;30.44;23.60
64080;BME280;51042;49.696;10.808;2022-08-11T13:22:52;98764.94;;;30.45;24.54
64080;BME280;51042;49.696;10.808;2022-08-11T13:25:22;98769.66;;;30.42;23.39
64080;BME280;51042;49.696;10.808;2022-08-11T13:27:50;98760.38;;;30.27;24.42
64080;BME280;51042;49.696;10.808;2022-08-11T13:30:18;98765.41;;;30.79;23.45
64080;BME280;51042;49.696;10.808;2022-08-11T13:33:02;98756.53;;;30.91;23.48
64080;BME280;51042;49.696;10.808;2022-08-11T13:35:32;98753.47;;;30.51;23.25
64080;BME280;51042;49.696;10.808;2022-08-11T13:38:00;98762.16;;;30.75;23.98
64080;BME280;51042;49.696;10.808;2022-08-11T13:40:26;98753.75;;;31.84;22.57
64080;BME280;51042;49.696;10.808;2022-08-11T13:42:53;98745.50;;;31.55;22.72
64080;BME280;51042;49.696;10.808;2022-08-11T13:45:21;98759.34;;;30.75;23.22
64080;BME280;51042;49.696;10.808;2022-08-11T13:47:47;98757.72;;;30.29;23.60
64080;BME280;51042;49.696;10.808;2022-08-11T13:50:15;98751.78;;;30.55;23.41
64080;BME280;51042;49.696;10.808;2022-08-11T13:52:42;98741.78;;;31.15;23.08
64080;BME280;51042;49.696;10.808;2022-08-11T13:55:10;98747.78;;;30.58;23.29
64080;BME280;51042;49.696;10.808;2022-08-11T13:57:46;98749.13;;;29.91;24.31
64080;BME280;51042;49.696;10.808;2022-08-11T14:00:13;98742.41;;;29.81;24.58
64080;BME280;51042;49.696;10.808;2022-08-11T14:02:41;98740.84;;;30.00;24.10
64080;BME280;51042;49.696;10.808;2022-08-11T14:05:11;98742.25;;;30.30;24.01
64080;BME280;51042;49.696;10.808;2022-08-11T14:07:40;98727.69;;;30.33;24.69
64080;BME280;51042;49.696;10.808;2022-08-11T14:10:16;98726.16;;;30.17;24.58
64080;BME280;51042;49.696;10.808;2022-08-11T14:12:46;98717.88;;;30.19;24.07
64080;BME280;51042;49.696;10.808;2022-08-11T14:15:40;98709.97;;;30.25;23.33
64080;BME280;51042;49.696;10.808;2022-08-11T14:18:12;98719.88;;;30.03;23.68
64080;BME280;51042;49.696;10.808;2022-08-11T14:20:43;98720.81;;;29.98;23.88
64080;BME280;51042;49.696;10.808;2022-08-11T14:23:34;98713.34;;;30.24;23.83
64080;BME280;51042;49.696;10.808;2022-08-11T14:26:04;98719.22;;;30.33;23.63
64080;BME280;51042;49.696;10.808;2022-08-11T14:28:49;98712.97;;;30.20;23.79
64080;BME280;51042;49.696;10.808;2022-08-11T14:31:37;98717.13;;;30.34;23.49
64080;BME280;51042;49.696;10.808;2022-08-11T14:34:08;98710.31;;;30.22;23.25
64080;BME280;51042;49.696;10.808;2022-08-11T14:36:41;98705.97;;;30.28;24.20
64080;BME280;51042;49.696;10.808;2022-08-11T14:39:09;98700.78;;;31.08;22.94
64080;BME280;51042;49.696;10.808;2022-08-11T14:41:56;98705.31;;;30.73;23.23
64080;BME280;51042;49.696;10.808;2022-08-11T14:44:43;98697.47;;;30.13;23.43
64080;BME280;51042;49.696;10.808;2022-08-11T14:47:33;98697.38;;;30.57;23.41
64080;BME280;51042;49.696;10.808;2022-08-11T14:50:01;98707.88;;;30.33;23.37
64080;BME280;51042;49.696;10.808;2022-08-11T14:52:28;98704.66;;;30.22;23.59
64080;BME280;51042;49.696;10.808;2022-08-11T14:54:57;98694.91;;;29.87;24.00
64080;BME280;51042;49.696;10.808;2022-08-11T14:57:41;98694.84;;;30.30;23.42
64080;BME280;51042;49.696;10.808;2022-08-11T15:00:09;98686.31;;;30.08;23.52
64080;BME280;51042;49.696;10.808;2022-08-11T15:02:39;98698.81;;;30.27;23.80
64080;BME280;51042;49.696;10.808;2022-08-11T15:05:24;98686.53;;;30.25;23.42
64080;BME280;51042;49.696;10.808;2022-08-11T15:07:51;98681.88;;;30.58;23.29
64080;BME280;51042;49.696;10.808;2022-08-11T15:10:18;98684.31;;;30.99;23.94
64080;BME280;51042;49.696;10.808;2022-08-11T15:12:45;98681.84;;;31.03;23.09
64080;BME280;51042;49.696;10.808;2022-08-11T15:15:11;98688.31;;;30.51;23.05
64080;BME280;51042;49.696;10.808;2022-08-11T15:17:57;98676.81;;;29.90;23.46
64080;BME280;51042;49.696;10.808;2022-08-11T15:20:26;98679.06;;;29.84;23.78
64080;BME280;51042;49.696;10.808;2022-08-11T15:23:11;98677.75;;;29.85;23.46
64080;BME280;51042;49.696;10.808;2022-08-11T15:25:57;98672.16;;;30.00;23.55
64080;BME280;51042;49.696;10.808;2022-08-11T15:28:26;98669.28;;;29.92;23.70
64080;BME280;51042;49.696;10.808;2022-08-11T15:31:12;98667.28;;;30.23;23.90
64080;BME280;51042;49.696;10.808;2022-08-11T15:33:53;98661.25;;;30.34;23.74
64080;BME280;51042;49.696;10.808;2022-08-11T15:36:41;98660.44;;;29.96;24.21
64080;BME280;51042;49.696;10.808;2022-08-11T15:39:30;98659.56;;;29.65;24.09
64080;BME280;51042;49.696;10.808;2022-08-11T15:42:00;98652.16;;;29.54;24.36
64080;BME280;51042;49.696;10.808;2022-08-11T15:44:55;98663.66;;;29.56;24.37
64080;BME280;51042;49.696;10.808;2022-08-11T15:47:44;98658.28;;;29.38;23.91
64080;BME280;51042;49.696;10.808;2022-08-11T15:50:18;98661.81;;;29.59;24.15
64080;BME280;51042;49.696;10.808;2022-08-11T15:52:48;98658.63;;;29.70;24.02
64080;BME280;51042;49.696;10.808;2022-08-11T15:55:18;98665.94;;;29.58;23.89
64080;BME280;51042;49.696;10.808;2022-08-11T15:57:46;98649.31;;;29.47;24.29
64080;BME280;51042;49.696;10.808;2022-08-11T16:00:33;98648.50;;;29.39;24.51
64080;BME280;51042;49.696;10.808;2022-08-11T16:03:20;98657.66;;;29.32;24.48
64080;BME280;51042;49.696;10.808;2022-08-11T16:06:07;98648.41;;;29.23;25.09
64080;BME280;51042;49.696;10.808;2022-08-11T16:08:33;98649.19;;;29.32;25.43
64080;BME280;51042;49.696;10.808;2022-08-11T16:10:59;98649.16;;;29.60;24.74
64080;BME280;51042;49.696;10.808;2022-08-11T16:13:27;98636.94;;;29.65;25.02
64080;BME280;51042;49.696;10.808;2022-08-11T16:15:54;98640.44;;;29.43;25.09
64080;BME280;51042;49.696;10.808;2022-08-11T16:21:08;98622.53;;;29.12;25.11
64080;BME280;51042;49.696;10.808;2022-08-11T16:23:37;98633.06;;;29.11;25.19
64080;BME280;51042;49.696;10.808;2022-08-11T16:26:04;98634.34;;;29.03;25.60
64080;BME280;51042;49.696;10.808;2022-08-11T16:28:33;98620.63;;;29.07;25.17
64080;BME280;51042;49.696;10.808;2022-08-11T16:31:00;98622.03;;;29.29;24.77
64080;BME280;51042;49.696;10.808;2022-08-11T16:33:26;98627.66;;;29.21;24.89
64080;BME280;51042;49.696;10.808;2022-08-11T16:35:54;98616.63;;;29.02;24.93
64080;BME280;51042;49.696;10.808;2022-08-11T16:38:39;98617.59;;;29.05;25.02
64080;BME280;51042;49.696;10.808;2022-08-11T16:41:07;98614.97;;;29.07;24.69
64080;BME280;51042;49.696;10.808;2022-08-11T16:43:37;98614.53;;;28.95;24.60
64080;BME280;51042;49.696;10.808;2022-08-11T16:46:24;98611.69;;;28.95;24.94
64080;BME280;51042;49.696;10.808;2022-08-11T16:49:11;98613.00;;;28.94;25.36
64080;BME280;51042;49.696;10.808;2022-08-11T16:51:40;98611.44;;;28.86;25.59
64080;BME280;51042;49.696;10.808;2022-08-11T16:54:06;98614.56;;;28.74;25.63
64080;BME280;51042;49.696;10.808;2022-08-11T16:59:05;98615.22;;;28.60;26.01
64080;BME280;51042;49.696;10.808;2022-08-11T17:04:30;98618.44;;;28.64;25.83
64080;BME280;51042;49.696;10.808;2022-08-11T17:07:23;98615.25;;;28.67;26.50
64080;BME280;51042;49.696;10.808;2022-08-11T17:10:43;98618.59;;;28.58;25.95
64080;BME280;51042;49.696;10.808;2022-08-11T17:13:25;98617.81;;;28.58;26.02
64080;BME280;51042;49.696;10.808;2022-08-11T17:15:56;98611.78;;;28.54;25.86
64080;BME280;51042;49.696;10.808;2022-08-11T17:23:52;98611.56;;;28.31;26.21